Time;durP1;ratioP1;P1;durP2;ratioP2;P2;SDS_P1;SDS_P2;PMS_P1;PMS_P2;Temp;Humidity;BMP_temperature;BMP_pressure;BME280_temperature;BME280_humidity;BME280_pressure;Samples;Min_cycle;Max_cycle;Signal;HPM_P1;HPM_P2
2023/12/28 00:00:10;;;;;;;42.20;13.90;;;;;;;2.77;89.09;100686.15;111390;1212;139408;-72
2023/12/28 00:02:35;;;;;;;39.60;12.50;;;;;;;2.79;89.12;100685.06;111523;1220;99113;-72
2023/12/28 00:05:02;;;;;;;43.00;13.50;;;;;;;2.78;88.96;100676.61;111740;1220;99054;-72
2023/12/28 00:07:27;;;;;;;40.10;13.10;;;;;;;2.74;88.82;100682.12;111399;1212;139444;-72
2023/12/28 00:09:54;;;;;;;33.70;13.70;;;;;;;2.71;88.81;100681.27;111663;1206;99026;-72
2023/12/28 00:12:19;;;;;;;41.00;13.30;;;;;;;2.71;88.88;100672.80;111560;1206;139125;-72
2023/12/28 00:14:44;;;;;;;38.60;13.30;;;;;;;2.69;88.80;100670.70;111676;1211;98963;-71
2023/12/28 00:17:09;;;;;;;38.20;12.70;;;;;;;2.67;88.75;100674.80;111637;1212;99046;-72
2023/12/28 00:19:35;;;;;;;38.30;12.40;;;;;;;2.65;88.62;100677.29;111574;1209;139083;-72
2023/12/28 00:22:01;;;;;;;34.10;11.60;;;;;;;2.63;88.77;100679.06;111649;1206;98952;-72
2023/12/28 00:24:27;;;;;;;35.20;11.90;;;;;;;2.64;88.86;100680.82;111530;1209;139033;-72
2023/12/28 00:26:52;;;;;;;31.60;11.60;;;;;;;2.62;88.76;100681.89;111720;1206;99012;-72
2023/12/28 00:29:17;;;;;;;41.90;13.60;;;;;;;2.63;88.82;100678.00;111657;1206;98913;-71
2023/12/28 00:31:42;;;;;;;35.80;13.30;;;;;;;2.65;88.84;100664.92;111592;1212;138792;-72
2023/12/28 00:34:08;;;;;;;38.50;12.80;;;;;;;2.63;88.79;100670.06;111665;1206;100243;-72
2023/12/28 00:36:33;;;;;;;31.00;11.50;;;;;;;2.60;88.70;100672.23;111571;1212;139393;-72
2023/12/28 00:38:58;;;;;;;42.30;13.10;;;;;;;2.59;88.78;100675.77;111677;1209;99048;-72
2023/12/28 00:41:23;;;;;;;29.00;11.30;;;;;;;2.58;88.64;100674.91;111609;1206;98932;-72
2023/12/28 00:43:49;;;;;;;38.80;12.70;;;;;;;2.57;88.80;100668.39;111608;1208;139044;-72
2023/12/28 00:46:14;;;;;;;34.30;11.50;;;;;;;2.55;88.71;100660.99;111632;1219;98994;-72
2023/12/28 00:48:39;;;;;;;37.50;12.60;;;;;;;2.54;88.73;100657.66;111540;1212;140603;-72
2023/12/28 00:51:05;;;;;;;34.90;11.60;;;;;;;2.53;88.65;100658.02;111549;1205;98932;-72
2023/12/28 00:53:31;;;;;;;35.00;11.00;;;;;;;2.52;88.57;100653.80;111674;1219;98925;-72
2023/12/28 00:55:56;;;;;;;29.60;10.10;;;;;;;2.52;88.69;100641.64;111518;1206;138914;-72
2023/12/28 00:58:21;;;;;;;37.20;12.20;;;;;;;2.52;88.63;100636.34;111633;1208;98964;-72
2023/12/28 01:00:46;;;;;;;36.50;11.60;;;;;;;2.52;88.80;100634.05;111601;1208;139144;-72
2023/12/28 01:03:12;;;;;;;31.90;11.10;;;;;;;2.51;88.82;100631.60;111568;1212;99095;-72
2023/12/28 01:05:37;;;;;;;37.30;11.30;;;;;;;2.50;88.85;100632.66;111743;1209;99038;-72
2023/12/28 01:08:02;;;;;;;38.00;11.80;;;;;;;2.50;88.60;100635.48;111573;1211;138930;-72
2023/12/28 01:10:28;;;;;;;40.20;11.30;;;;;;;2.51;88.67;100628.95;111619;1212;99027;-72
2023/12/28 01:12:53;;;;;;;26.90;10.60;;;;;;;2.50;88.78;100617.14;111622;1206;140627;-72
2023/12/28 01:15:20;;;;;;;33.20;10.30;;;;;;;2.51;88.61;100621.38;111617;1209;99351;-72
2023/12/28 01:17:45;;;;;;;28.90;10.70;;;;;;;2.50;88.50;100618.39;111675;1206;98968;-72
2023/12/28 01:20:11;;;;;;;33.90;10.50;;;;;;;2.50;88.58;100621.91;111571;1211;138966;-72
2023/12/28 01:22:37;;;;;;;34.80;10.90;;;;;;;2.48;88.59;100621.39;111639;1208;99392;-72
2023/12/28 01:25:03;;;;;;;34.90;10.70;;;;;;;2.48;88.51;100627.74;111619;1210;139754;-72
2023/12/28 01:27:28;;;;;;;30.20;10.50;;;;;;;2.45;88.60;100625.66;111837;1212;99006;-72
2023/12/28 01:29:54;;;;;;;31.30;10.90;;;;;;;2.46;88.55;100624.77;111504;1208;139095;-72
2023/12/28 01:32:19;;;;;;;32.90;10.40;;;;;;;2.47;88.52;100621.94;111737;1213;98986;-72
2023/12/28 01:34:45;;;;;;;31.30;10.30;;;;;;;2.47;88.64;100616.29;111722;1209;98923;-72
2023/12/28 01:37:10;;;;;;;27.30;9.20;;;;;;;2.46;88.50;100614.71;111499;1206;139001;-72
2023/12/28 01:39:35;;;;;;;30.50;9.40;;;;;;;2.47;88.54;100608.89;111730;1209;98913;-72
2023/12/28 01:42:01;;;;;;;31.60;10.00;;;;;;;2.48;88.55;100608.17;111563;1212;139008;-72
2023/12/28 01:44:26;;;;;;;35.10;9.80;;;;;;;2.47;88.55;100604.84;111674;1206;99002;-72
2023/12/28 01:46:52;;;;;;;23.00;8.60;;;;;;;2.47;88.55;100609.59;111640;1219;99055;-72
2023/12/28 01:49:17;;;;;;;29.60;10.70;;;;;;;2.46;88.45;100610.14;111549;1206;139281;-72
2023/12/28 01:51:44;;;;;;;27.40;8.90;;;;;;;2.45;88.51;100606.98;111731;1206;99025;-72
2023/12/28 01:54:10;;;;;;;28.20;9.60;;;;;;;2.44;88.48;100592.88;111547;1207;139195;-72
2023/12/28 01:56:36;;;;;;;29.30;9.00;;;;;;;2.43;88.35;100582.13;111635;1210;99095;-72
2023/12/28 01:59:02;;;;;;;26.10;8.90;;;;;;;2.42;88.50;100568.56;111740;1209;98960;-72
2023/12/28 02:01:27;;;;;;;29.80;9.10;;;;;;;2.43;88.53;100552.15;111461;1206;139271;-72
2023/12/28 02:03:54;;;;;;;23.20;9.10;;;;;;;2.44;88.49;100539.26;111687;1206;98932;-72
2023/12/28 02:06:23;;;;;;;27.90;8.80;;;;;;;2.46;88.61;100528.48;111597;1206;139045;-72
2023/12/28 02:08:48;;;;;;;27.20;8.60;;;;;;;2.46;88.50;100526.71;111705;1212;97413;-72
2023/12/28 02:11:14;;;;;;;24.50;7.90;;;;;;;2.45;88.57;100531.83;111693;1206;99051;-72
2023/12/28 02:13:40;;;;;;;26.70;8.70;;;;;;;2.45;88.61;100527.08;111566;1209;139698;-72
2023/12/28 02:16:43;;;;;;;25.30;8.90;;;;;;;2.45;88.47;100536.95;111652;1206;98947;-72
2023/12/28 02:19:40;;;;;;;21.00;8.20;;;;;;;2.46;88.54;100526.19;111358;1208;139094;-72
2023/12/28 02:22:07;;;;;;;23.10;8.70;;;;;;;2.48;88.45;100510.12;111731;1208;112602;-72
2023/12/28 02:24:51;;;;;;;24.60;9.90;;;;;;;2.48;88.61;100503.77;111509;1212;139654;-72
2023/12/28 02:27:16;;;;;;;25.80;8.50;;;;;;;2.51;88.69;100490.31;111587;1206;107434;-72
2023/12/28 02:29:41;;;;;;;18.60;7.90;;;;;;;2.53;88.70;100492.95;111569;1206;98956;-72
2023/12/28 02:32:09;;;;;;;23.70;7.30;;;;;;;2.51;88.47;100481.85;111593;1206;138359;-72
2023/12/28 02:34:40;;;;;;;26.70;8.00;;;;;;;2.50;88.43;100467.93;111619;1206;99660;-72
2023/12/28 02:37:06;;;;;;;25.50;8.20;;;;;;;2.50;88.45;100462.83;111516;1207;138605;-72
2023/12/28 02:39:33;;;;;;;26.20;8.80;;;;;;;2.51;88.58;100465.10;111597;1206;98970;-72
2023/12/28 02:41:58;;;;;;;22.20;8.20;;;;;;;2.51;88.61;100469.52;111570;1206;138860;-72
2023/12/28 02:44:23;;;;;;;18.80;8.10;;;;;;;2.49;88.52;100463.89;111688;1206;98965;-72
2023/12/28 02:46:48;;;;;;;21.50;7.90;;;;;;;2.49;88.53;100453.13;111543;1212;98938;-72
2023/12/28 02:49:15;;;;;;;29.20;8.40;;;;;;;2.50;88.67;100445.17;111542;1209;138552;-72
2023/12/28 02:51:42;;;;;;;21.60;8.10;;;;;;;2.51;88.51;100432.11;111617;1208;113276;-72
2023/12/28 02:54:08;;;;;;;20.00;7.40;;;;;;;2.51;88.69;100412.02;111427;1206;139436;-72
2023/12/28 02:56:33;;;;;;;17.30;7.80;;;;;;;2.51;88.56;100404.24;111646;1208;99333;-73
2023/12/28 02:58:58;;;;;;;19.60;7.50;;;;;;;2.54;88.56;100406.33;111732;1206;99338;-72
2023/12/28 03:01:24;;;;;;;23.10;9.00;;;;;;;2.53;88.58;100409.70;111508;1209;138623;-72
2023/12/28 03:03:49;;;;;;;27.00;9.20;;;;;;;2.52;88.51;100407.24;111700;1208;100413;-72
2023/12/28 03:06:14;;;;;;;27.30;8.70;;;;;;;2.51;88.47;100395.80;111558;1209;139685;-72
2023/12/28 03:08:39;;;;;;;20.00;8.10;;;;;;;2.50;88.56;100389.80;111702;1206;99018;-72
2023/12/28 03:11:05;;;;;;;23.80;8.50;;;;;;;2.51;88.65;100383.80;111729;1209;99121;-72
2023/12/28 03:13:31;;;;;;;26.50;9.40;;;;;;;2.52;88.62;100379.73;111528;1218;138995;-72
2023/12/28 03:15:57;;;;;;;27.90;9.00;;;;;;;2.53;88.63;100379.70;111672;1208;99015;-72
2023/12/28 03:18:22;;;;;;;22.00;9.50;;;;;;;2.53;88.61;100377.77;111544;1212;138710;-72
2023/12/28 03:20:47;;;;;;;19.80;9.20;;;;;;;2.54;88.78;100374.75;111546;1212;98963;-72
2023/12/28 03:23:12;;;;;;;21.60;8.30;;;;;;;2.55;88.63;100383.73;111722;1210;98984;-72
2023/12/28 03:25:38;;;;;;;25.70;9.20;;;;;;;2.57;88.69;100389.54;111572;1212;138735;-72
2023/12/28 03:28:03;;;;;;;22.30;8.10;;;;;;;2.57;88.73;100385.83;111739;1209;99082;-72
2023/12/28 03:30:29;;;;;;;22.10;8.60;;;;;;;2.57;88.74;100381.95;111508;1210;139309;-72
2023/12/28 03:32:54;;;;;;;20.30;8.50;;;;;;;2.58;88.88;100371.69;111686;1206;99084;-72
2023/12/28 03:35:19;;;;;;;20.20;8.70;;;;;;;2.58;88.78;100355.28;111717;1206;99047;-72
2023/12/28 03:37:44;;;;;;;17.80;7.60;;;;;;;2.61;88.92;100359.97;111567;1210;138452;-72
2023/12/28 03:40:12;;;;;;;18.10;8.20;;;;;;;2.61;88.74;100363.50;111670;1210;98942;-72
2023/12/28 03:42:38;;;;;;;23.00;8.40;;;;;;;2.61;88.89;100364.73;111520;1209;138793;-72
2023/12/28 03:45:04;;;;;;;19.30;8.20;;;;;;;2.63;88.81;100360.48;111630;1210;99403;-71
2023/12/28 03:47:29;;;;;;;20.30;8.60;;;;;;;2.63;89.05;100355.53;111644;1206;98982;-72
2023/12/28 03:49:56;;;;;;;22.70;8.20;;;;;;;2.66;88.94;100356.19;111634;1206;138607;-72
2023/12/28 03:52:22;;;;;;;24.10;9.20;;;;;;;2.68;88.87;100349.64;111629;1206;99487;-72
2023/12/28 03:54:47;;;;;;;18.30;8.60;;;;;;;2.68;88.99;100348.05;111524;1209;138579;-72
2023/12/28 03:57:13;;;;;;;22.60;8.50;;;;;;;2.67;89.00;100344.89;111689;1206;99015;-72
2023/12/28 03:59:39;;;;;;;25.20;8.80;;;;;;;2.66;88.74;100341.56;111614;1212;99136;-72
2023/12/28 04:02:05;;;;;;;23.80;8.80;;;;;;;2.65;88.65;100339.82;111549;1209;138726;-72
2023/12/28 04:04:30;;;;;;;25.50;8.50;;;;;;;2.65;88.92;100340.69;111708;1206;98964;-72
2023/12/28 04:06:55;;;;;;;21.90;8.40;;;;;;;2.65;88.83;100341.57;111548;1206;138565;-72
2023/12/28 04:09:20;;;;;;;19.80;9.10;;;;;;;2.67;89.06;100342.41;111703;1206;99024;-72
2023/12/28 04:11:47;;;;;;;20.90;7.80;;;;;;;2.67;88.95;100338.72;111691;1206;112279;-71
2023/12/28 04:14:12;;;;;;;22.50;8.80;;;;;;;2.67;89.06;100336.08;111542;1208;138636;-72
2023/12/28 04:16:38;;;;;;;18.20;7.80;;;;;;;2.67;89.11;100332.54;111690;1209;99099;-72
2023/12/28 04:19:03;;;;;;;22.70;9.30;;;;;;;2.69;89.11;100337.10;111507;1206;139073;-72
2023/12/28 04:21:28;;;;;;;23.90;8.60;;;;;;;2.69;89.20;100339.38;111631;1208;99037;-72
2023/12/28 04:23:53;;;;;;;22.10;8.70;;;;;;;2.68;89.03;100340.46;111551;1207;138906;-72
2023/12/28 04:26:20;;;;;;;18.80;8.60;;;;;;;2.69;89.16;100340.80;111610;1212;98951;-72
2023/12/28 04:28:46;;;;;;;22.70;9.00;;;;;;;2.69;89.10;100341.31;111676;1206;99004;-73
2023/12/28 04:31:11;;;;;;;18.40;8.20;;;;;;;2.69;88.97;100331.80;111596;1208;139005;-72
2023/12/28 04:33:36;;;;;;;20.80;8.50;;;;;;;2.68;89.26;100338.70;111585;1208;98551;-72
2023/12/28 04:36:04;;;;;;;19.70;7.60;;;;;;;2.71;89.15;100343.59;111552;1209;138825;-72
2023/12/28 04:38:30;;;;;;;16.00;7.30;;;;;;;2.71;89.13;100343.94;111658;1206;112353;-72
2023/12/28 04:40:55;;;;;;;16.00;7.00;;;;;;;2.72;89.29;100347.63;111596;1210;98935;-72
2023/12/28 04:43:23;;;;;;;20.30;7.20;;;;;;;2.74;89.10;100352.53;111510;1206;138684;-72
2023/12/28 04:45:49;;;;;;;21.30;8.20;;;;;;;2.78;89.19;100355.65;111647;1206;99101;-72
2023/12/28 04:48:14;;;;;;;18.80;7.80;;;;;;;2.80;89.25;100355.07;111510;1209;138878;-73
2023/12/28 04:50:39;;;;;;;21.50;8.30;;;;;;;2.83;89.16;100340.92;111618;1210;99102;-72
2023/12/28 04:53:05;;;;;;;18.70;8.60;;;;;;;2.84;89.06;100333.13;111633;1210;99044;-73
2023/12/28 04:55:31;;;;;;;22.00;8.10;;;;;;;2.87;89.22;100336.42;111538;1210;140000;-72
2023/12/28 04:57:56;;;;;;;25.20;8.60;;;;;;;2.90;89.34;100331.27;111684;1209;99791;-72
2023/12/28 05:00:21;;;;;;;19.10;8.20;;;;;;;2.92;89.21;100331.95;111488;1205;139116;-72
2023/12/28 05:02:47;;;;;;;19.80;7.20;;;;;;;2.94;89.33;100334.91;111707;1209;99369;-72
2023/12/28 05:05:12;;;;;;;22.90;8.20;;;;;;;2.97;89.42;100324.45;111665;1209;99950;-72
2023/12/28 05:07:37;;;;;;;15.40;6.50;;;;;;;3.01;89.33;100319.79;111565;1206;139175;-72
2023/12/28 05:10:03;;;;;;;19.30;7.60;;;;;;;3.02;89.35;100313.06;111637;1209;99093;-72
2023/12/28 05:12:29;;;;;;;16.10;6.50;;;;;;;3.04;89.35;100300.67;111535;1208;138659;-72
2023/12/28 05:14:54;;;;;;;17.70;7.10;;;;;;;3.06;89.30;100305.22;111764;1209;99073;-72
2023/12/28 05:17:19;;;;;;;20.50;7.30;;;;;;;3.08;89.30;100306.25;111628;1209;98922;-72
2023/12/28 05:19:44;;;;;;;17.30;6.20;;;;;;;3.11;89.17;100307.60;111637;1206;138997;-72
2023/12/28 05:22:11;;;;;;;17.10;7.50;;;;;;;3.13;89.27;100307.73;111648;1209;99044;-72
2023/12/28 05:24:36;;;;;;;16.90;6.90;;;;;;;3.15;89.25;100309.29;111555;1207;139258;-73
2023/12/28 05:27:02;;;;;;;22.10;7.80;;;;;;;3.17;89.42;100317.72;111671;1206;101882;-72
2023/12/28 05:29:27;;;;;;;17.20;6.40;;;;;;;3.21;89.42;100318.89;111711;1209;101596;-72
2023/12/28 05:31:52;;;;;;;13.20;5.70;;;;;;;3.24;89.51;100324.31;111550;1206;139167;-72
2023/12/28 05:34:18;;;;;;;20.80;6.60;;;;;;;3.25;89.38;100319.52;111702;1206;99210;-72
2023/12/28 05:36:45;;;;;;;17.50;6.40;;;;;;;3.25;89.43;100308.04;111532;1206;138700;-72
2023/12/28 05:39:13;;;;;;;14.90;6.20;;;;;;;3.29;89.38;100299.83;111642;1206;98946;-72
2023/12/28 05:41:39;;;;;;;12.80;5.80;;;;;;;3.33;89.51;100293.41;111639;1205;100820;-72
2023/12/28 05:44:04;;;;;;;13.50;5.80;;;;;;;3.36;89.43;100299.36;111560;1209;138624;-72
2023/12/28 05:46:29;;;;;;;13.20;5.40;;;;;;;3.40;89.42;100300.68;111679;1212;98461;-72
2023/12/28 05:48:55;;;;;;;11.60;5.00;;;;;;;3.48;89.63;100303.53;111520;1210;138792;-72
2023/12/28 05:51:21;;;;;;;12.40;5.10;;;;;;;3.55;89.56;100311.34;111700;1206;99032;-72
2023/12/28 05:53:46;;;;;;;11.00;4.00;;;;;;;3.64;89.46;100308.52;111673;1209;99076;-72
2023/12/28 05:56:11;;;;;;;12.10;4.60;;;;;;;3.70;89.35;100302.55;111542;1209;139104;-72
2023/12/28 05:58:38;;;;;;;10.10;4.40;;;;;;;3.75;89.35;100303.69;111717;1209;99058;-73
2023/12/28 06:01:07;;;;;;;12.50;6.10;;;;;;;3.82;89.41;100308.67;111549;1209;139097;-72
2023/12/28 06:03:32;;;;;;;11.20;4.50;;;;;;;3.87;89.44;100311.56;111642;1206;109232;-72
2023/12/28 06:05:58;;;;;;;10.30;4.00;;;;;;;3.88;89.13;100312.08;111488;1206;139216;-72
2023/12/28 06:08:24;;;;;;;14.10;4.90;;;;;;;3.89;89.30;100320.52;111664;1212;99123;-72
2023/12/28 06:10:49;;;;;;;11.10;4.90;;;;;;;3.95;89.38;100328.52;111680;1209;99047;-72
2023/12/28 06:13:14;;;;;;;15.50;4.60;;;;;;;4.04;89.46;100329.05;111526;1209;138595;-72
2023/12/28 06:15:40;;;;;;;14.90;4.90;;;;;;;4.08;89.25;100332.66;111717;1210;98958;-72
2023/12/28 06:18:05;;;;;;;11.80;4.70;;;;;;;4.13;89.15;100335.23;111542;1210;138822;-72
2023/12/28 06:20:30;;;;;;;10.80;4.20;;;;;;;4.17;89.29;100342.02;111645;1209;98970;-72
2023/12/28 06:22:56;;;;;;;10.50;4.30;;;;;;;4.22;89.18;100347.56;111663;1206;98926;-72
2023/12/28 06:25:21;;;;;;;12.20;4.50;;;;;;;4.26;89.12;100354.55;111570;1205;138584;-72
2023/12/28 06:27:46;;;;;;;15.30;4.40;;;;;;;4.33;89.33;100356.35;111655;1210;98929;-72
2023/12/28 06:30:12;;;;;;;13.50;4.40;;;;;;;4.37;89.37;100361.73;111537;1209;139244;-72
2023/12/28 06:32:37;;;;;;;15.00;4.70;;;;;;;4.40;89.14;100375.64;111679;1206;99029;-72
2023/12/28 06:35:03;;;;;;;12.90;4.30;;;;;;;4.41;89.17;100383.05;111609;1209;98649;-72
2023/12/28 06:37:28;;;;;;;12.70;4.80;;;;;;;4.41;89.08;100381.99;111520;1205;139824;-72
2023/12/28 06:39:53;;;;;;;10.40;4.70;;;;;;;4.39;89.08;100389.80;111678;1206;98924;-72
2023/12/28 06:42:19;;;;;;;10.30;4.10;;;;;;;4.37;89.19;100381.72;111541;1209;138922;-72
2023/12/28 06:44:44;;;;;;;8.30;4.50;;;;;;;4.35;89.03;100372.58;111746;1206;98958;-72
2023/12/28 06:47:09;;;;;;;13.00;4.70;;;;;;;4.36;89.13;100375.21;111623;1209;98938;-72
2023/12/28 06:49:35;;;;;;;11.00;3.90;;;;;;;4.37;89.10;100366.52;111597;1206;138581;-72
2023/12/28 06:52:00;;;;;;;12.90;5.20;;;;;;;4.38;89.17;100362.61;111627;1206;112421;-72
2023/12/28 06:54:25;;;;;;;8.80;3.60;;;;;;;4.39;89.11;100369.48;111471;1209;138829;-72
2023/12/28 06:56:51;;;;;;;11.10;4.90;;;;;;;4.40;89.15;100385.02;111716;1206;99012;-72
2023/12/28 06:59:17;;;;;;;9.90;4.40;;;;;;;4.42;89.16;100383.55;111765;1209;98890;-72
2023/12/28 07:01:44;;;;;;;12.00;5.00;;;;;;;4.41;89.15;100377.73;111741;1206;138418;-73
2023/12/28 07:04:09;;;;;;;16.00;4.10;;;;;;;4.43;89.03;100378.77;111754;1206;107484;-72
2023/12/28 07:06:34;;;;;;;12.50;4.00;;;;;;;4.46;89.23;100385.23;111588;1207;139195;-72
2023/12/28 07:09:00;;;;;;;8.30;4.10;;;;;;;4.51;89.37;100396.81;111811;1206;99374;-72
2023/12/28 07:11:26;;;;;;;8.80;3.70;;;;;;;4.53;89.32;100394.80;111742;1206;99715;-73
2023/12/28 07:13:52;;;;;;;7.50;3.50;;;;;;;4.56;89.29;100393.85;111671;1209;138349;-72
2023/12/28 07:16:17;;;;;;;10.70;3.60;;;;;;;4.58;89.40;100404.08;111821;1206;99402;-71
2023/12/28 07:18:42;;;;;;;9.80;4.20;;;;;;;4.63;89.35;100410.69;111641;1206;138536;-71
2023/12/28 07:21:11;;;;;;;9.00;4.00;;;;;;;4.65;89.53;100417.35;111845;1206;99564;-73
2023/12/28 07:23:36;;;;;;;8.50;4.30;;;;;;;4.70;89.46;100416.55;111664;1206;99050;-72
2023/12/28 07:26:02;;;;;;;9.00;4.00;;;;;;;4.74;89.30;100413.61;111592;1209;138419;-72
2023/12/28 07:28:27;;;;;;;10.20;4.30;;;;;;;4.74;89.30;100420.68;111751;1206;98929;-73
2023/12/28 07:30:53;;;;;;;9.50;3.90;;;;;;;4.77;89.51;100426.30;111633;1206;139270;-72
2023/12/28 07:33:19;;;;;;;10.80;3.90;;;;;;;4.80;89.45;100431.54;111768;1206;99078;-72
2023/12/28 07:35:44;;;;;;;9.90;4.40;;;;;;;4.80;89.28;100427.27;111886;1209;97935;-72
2023/12/28 07:38:09;;;;;;;17.40;4.30;;;;;;;4.80;89.57;100430.11;111697;1206;138319;-72
2023/12/28 07:40:34;;;;;;;10.30;3.80;;;;;;;4.83;89.62;100433.77;111699;1211;97991;-72
2023/12/28 07:43:01;;;;;;;11.40;4.40;;;;;;;4.87;89.65;100435.25;111700;1208;138558;-72
2023/12/28 07:45:27;;;;;;;10.90;4.20;;;;;;;4.91;89.61;100441.55;111760;1210;99805;-72
2023/12/28 07:47:52;;;;;;;11.90;5.00;;;;;;;4.92;89.46;100444.70;111679;1209;138701;-71
2023/12/28 07:50:18;;;;;;;7.30;3.30;;;;;;;4.94;89.65;100442.00;111781;1209;99060;-73
2023/12/28 07:52:45;;;;;;;8.30;3.60;;;;;;;4.96;89.62;100444.27;111776;1210;100459;-72
2023/12/28 07:55:11;;;;;;;12.40;3.90;;;;;;;4.97;89.66;100450.42;112027;1209;139052;-73
2023/12/28 07:57:36;;;;;;;11.80;4.40;;;;;;;4.99;89.75;100451.45;111817;1210;98992;-72
2023/12/28 08:00:02;;;;;;;9.60;4.00;;;;;;;5.04;89.86;100457.35;111680;1207;139368;-72
2023/12/28 08:02:27;;;;;;;13.80;6.00;;;;;;;5.06;89.68;100463.13;111795;1209;99032;-72
2023/12/28 08:04:53;;;;;;;16.30;6.70;;;;;;;5.09;89.78;100452.61;111851;1210;98918;-72
2023/12/28 08:07:18;;;;;;;35.60;13.80;;;;;;;5.13;89.82;100445.79;111554;1206;138623;-72
2023/12/28 08:09:44;;;;;;;37.60;15.30;;;;;;;5.15;89.77;100443.63;111743;1206;100008;-72
2023/12/28 08:12:09;;;;;;;63.60;26.10;;;;;;;5.16;89.86;100442.34;111568;1209;139262;-72
2023/12/28 08:14:34;;;;;;;58.30;23.60;;;;;;;5.18;89.90;100444.77;111746;1206;98947;-72
2023/12/28 08:17:00;;;;;;;46.10;17.70;;;;;;;5.21;89.95;100452.66;111820;1209;98971;-72
2023/12/28 08:19:25;;;;;;;29.30;13.20;;;;;;;5.23;89.81;100453.85;111620;1206;138989;-72
2023/12/28 08:21:50;;;;;;;27.40;11.10;;;;;;;5.26;89.78;100448.98;111849;1206;99157;-73
2023/12/28 08:24:16;;;;;;;17.30;7.80;;;;;;;5.30;89.95;100455.44;111646;1208;139116;-72
2023/12/28 08:26:41;;;;;;;14.60;6.80;;;;;;;5.33;89.86;100453.40;111741;1206;98946;-73
2023/12/28 08:29:07;;;;;;;15.40;6.00;;;;;;;5.35;89.98;100456.55;111823;1205;99059;-73
2023/12/28 08:31:32;;;;;;;12.70;5.50;;;;;;;5.38;89.81;100452.58;111601;1210;138826;-72
2023/12/28 08:33:58;;;;;;;14.40;5.40;;;;;;;5.37;89.81;100454.37;111791;1206;100345;-72
2023/12/28 08:36:23;;;;;;;10.10;4.10;;;;;;;5.37;89.82;100457.02;111573;1210;139472;-72
2023/12/28 08:38:48;;;;;;;16.40;5.90;;;;;;;5.40;89.95;100461.56;111799;1209;98822;-72
2023/12/28 08:41:26;;;;;;;15.30;5.90;;;;;;;5.43;89.92;100460.95;111872;1205;98978;-72
2023/12/28 08:43:53;;;;;;;16.10;5.90;;;;;;;5.48;89.87;100466.30;111699;1207;139149;-72
2023/12/28 08:46:19;;;;;;;13.30;5.50;;;;;;;5.53;90.06;100457.87;111778;1209;98998;-72
2023/12/28 08:48:45;;;;;;;21.70;5.30;;;;;;;5.58;90.01;100457.05;111637;1209;138577;-73
2023/12/28 08:51:11;;;;;;;15.60;6.00;;;;;;;5.62;90.04;100464.36;111674;1208;99127;-73
2023/12/28 08:53:38;;;;;;;18.60;7.30;;;;;;;5.67;90.09;100468.48;111672;1208;98914;-72
2023/12/28 08:56:16;;;;;;;17.20;5.70;;;;;;;5.70;89.97;100455.64;111743;1206;138613;-72
2023/12/28 08:58:42;;;;;;;13.00;5.50;;;;;;;5.74;89.90;100450.76;111815;1206;112437;-72
2023/12/28 09:01:07;;;;;;;12.10;5.90;;;;;;;5.78;89.94;100458.09;111522;1212;139173;-73
2023/12/28 09:03:32;;;;;;;12.40;5.70;;;;;;;5.80;89.92;100457.67;111852;1206;100150;-72
2023/12/28 09:05:58;;;;;;;12.60;5.40;;;;;;;5.84;89.98;100458.30;111726;1206;138938;-72
2023/12/28 09:08:23;;;;;;;14.60;5.90;;;;;;;5.89;90.02;100459.79;111841;1208;98783;-73
2023/12/28 09:10:48;;;;;;;9.30;4.80;;;;;;;5.91;89.96;100461.14;111783;1208;98990;-72
2023/12/28 09:13:16;;;;;;;13.80;6.00;;;;;;;5.94;89.90;100465.15;111766;1206;138523;-73
2023/12/28 09:15:43;;;;;;;13.30;6.00;;;;;;;5.98;89.85;100460.41;111717;1208;111432;-73
2023/12/28 09:18:08;;;;;;;20.50;5.80;;;;;;;6.01;89.88;100457.15;111703;1210;139591;-69
2023/12/28 09:20:35;;;;;;;14.50;5.10;;;;;;;6.01;89.73;100464.23;111773;1206;99023;-69
2023/12/28 09:23:00;;;;;;;11.30;5.40;;;;;;;6.02;89.76;100472.19;111708;1208;101385;-70
2023/12/28 09:25:26;;;;;;;12.20;5.10;;;;;;;6.03;89.72;100471.63;111592;1206;139192;-70
2023/12/28 09:27:51;;;;;;;12.30;5.70;;;;;;;6.05;89.64;100472.47;111809;1206;97853;-68
2023/12/28 09:30:17;;;;;;;12.10;4.70;;;;;;;6.04;89.79;100470.00;111581;1209;138765;-70
2023/12/28 09:32:42;;;;;;;8.60;4.60;;;;;;;6.10;89.76;100471.60;111689;1206;98952;-69
2023/12/28 09:35:08;;;;;;;9.30;4.30;;;;;;;6.15;89.74;100477.16;111769;1209;98966;-69
2023/12/28 09:37:33;;;;;;;12.90;4.90;;;;;;;6.17;89.69;100477.79;111525;1210;139812;-69
2023/12/28 09:39:59;;;;;;;15.10;5.20;;;;;;;6.19;89.54;100473.30;111748;1206;99820;-69
2023/12/28 09:42:36;;;;;;;10.90;4.60;;;;;;;6.22;89.67;100470.02;111590;1209;139371;-69
2023/12/28 09:45:03;;;;;;;10.00;4.70;;;;;;;6.28;89.59;100472.72;111714;1205;99287;-70
2023/12/28 09:47:29;;;;;;;12.30;4.80;;;;;;;6.30;89.44;100472.81;111608;1206;99070;-69
2023/12/28 09:49:54;;;;;;;11.80;5.20;;;;;;;6.31;89.52;100463.57;111521;1206;139131;-69
2023/12/28 09:52:20;;;;;;;10.20;4.70;;;;;;;6.35;89.47;100466.13;111716;1206;98948;-68
2023/12/28 09:54:45;;;;;;;11.60;5.00;;;;;;;6.37;89.50;100457.88;111542;1206;139626;-69
2023/12/28 09:57:11;;;;;;;12.00;5.40;;;;;;;6.42;89.38;100457.75;111694;1207;99054;-69
2023/12/28 09:59:39;;;;;;;14.30;5.60;;;;;;;6.45;89.50;100456.22;111625;1210;99870;-69
2023/12/28 10:02:04;;;;;;;9.10;4.80;;;;;;;6.50;89.42;100459.98;111534;1206;139688;-68
2023/12/28 10:04:31;;;;;;;13.50;5.20;;;;;;;6.52;89.24;100463.85;111606;1216;98971;-69
2023/12/28 10:06:57;;;;;;;13.60;5.30;;;;;;;6.55;89.26;100472.63;111688;1207;138529;-69
2023/12/28 10:09:26;;;;;;;16.10;6.00;;;;;;;6.59;89.21;100472.34;111605;1209;101619;-71
2023/12/28 10:11:53;;;;;;;15.20;5.90;;;;;;;6.62;89.13;100473.14;111519;1210;113131;-71
2023/12/28 10:14:20;;;;;;;13.60;5.60;;;;;;;6.65;89.05;100476.76;111695;1209;98876;-72
2023/12/28 10:16:46;;;;;;;12.40;5.20;;;;;;;6.66;88.97;100480.83;111642;1206;100408;-70
2023/12/28 10:19:11;;;;;;;13.00;4.70;;;;;;;6.67;89.03;100481.67;111567;1209;140133;-70
2023/12/28 10:21:43;;;;;;;11.10;4.80;;;;;;;6.70;88.93;100479.82;111573;1206;98973;-71
2023/12/28 10:24:10;;;;;;;12.50;6.20;;;;;;;6.67;88.74;100471.73;111490;1207;139211;-72
2023/12/28 10:26:36;;;;;;;17.70;6.70;;;;;;;6.70;88.80;100468.64;111496;1210;98992;-68
2023/12/28 10:29:03;;;;;;;9.60;4.80;;;;;;;6.73;88.81;100471.38;111548;1209;99010;-68
2023/12/28 10:31:31;;;;;;;11.30;4.70;;;;;;;6.74;88.79;100467.43;111477;1211;138630;-70
2023/12/28 10:34:02;;;;;;;11.50;5.00;;;;;;;6.76;88.68;100467.73;111527;1206;101041;-69
2023/12/28 10:36:28;;;;;;;9.50;4.30;;;;;;;6.79;88.63;100463.19;111398;1209;138992;-69
2023/12/28 10:38:54;;;;;;;7.90;4.20;;;;;;;6.80;88.64;100451.98;111583;1206;99031;-70
2023/12/28 10:41:21;;;;;;;8.50;3.90;;;;;;;6.83;88.58;100452.60;111502;1209;99007;-70
2023/12/28 10:44:02;;;;;;;16.30;8.20;;;;;;;6.87;88.55;100453.73;111473;1205;139214;-68
2023/12/28 10:46:31;;;;;;;20.70;13.60;;;;;;;6.89;88.57;100451.88;111546;1209;107392;-68
2023/12/28 10:49:06;;;;;;;31.90;19.50;;;;;;;6.92;88.46;100450.38;111475;1206;139186;-66
2023/12/28 10:51:36;;;;;;;19.40;13.10;;;;;;;6.95;88.48;100445.48;110987;1207;99047;-68
2023/12/28 10:54:07;;;;;;;26.00;16.20;;;;;;;6.99;88.56;100444.28;111448;1206;140619;-70
2023/12/28 10:56:41;;;;;;;17.60;10.40;;;;;;;7.02;88.37;100440.99;111462;1205;99461;-69
2023/12/28 10:59:21;;;;;;;20.00;9.00;;;;;;;7.04;88.44;100441.81;111579;1206;107499;-67
2023/12/28 11:01:51;;;;;;;22.10;8.70;;;;;;;7.08;88.39;100437.60;111398;1205;139264;-68
2023/12/28 11:04:31;;;;;;;16.40;6.00;;;;;;;7.09;88.29;100439.67;111609;1205;98970;-68
2023/12/28 11:07:01;;;;;;;12.90;5.70;;;;;;;7.11;88.20;100434.12;111495;1205;139067;-68